Time;durP1;ratioP1;P1;durP2;ratioP2;P2;SDS_P1;SDS_P2;PMS_P1;PMS_P2;Temp;Humidity;BMP_temperature;BMP_pressure;BME280_temperature;BME280_humidity;BME280_pressure;Samples;Min_cycle;Max_cycle;Signal;HPM_P1;HPM_P2
2022/11/09 00:00:46;;;;;;;3.15;1.55;;;13.70;99.90;;;;;;5075869;28;20044;-71
2022/11/09 00:03:12;;;;;;;3.88;1.50;;;13.70;99.90;;;;;;5075356;28;20090;-71
2022/11/09 00:05:38;;;;;;;3.00;1.30;;;13.60;99.90;;;;;;5057265;28;20059;-72
2022/11/09 00:08:05;;;;;;;3.38;1.25;;;13.60;99.90;;;;;;5057015;28;20044;-71
2022/11/09 00:10:32;;;;;;;2.75;1.20;;;13.70;99.90;;;;;;5075536;28;20071;-71
2022/11/09 00:12:57;;;;;;;5.43;1.50;;;13.60;99.90;;;;;;5075232;28;20481;-71
2022/11/09 00:15:23;;;;;;;3.45;1.42;;;13.60;99.90;;;;;;5075160;28;20130;-71
2022/11/09 00:17:49;;;;;;;3.35;1.50;;;13.60;99.90;;;;;;5075061;28;20036;-71
2022/11/09 00:20:15;;;;;;;2.13;1.27;;;13.60;99.90;;;;;;5057750;28;20336;-71
2022/11/09 00:22:40;;;;;;;3.38;1.30;;;13.60;99.90;;;;;;5075049;28;20444;-71
2022/11/09 00:25:06;;;;;;;3.70;1.40;;;13.60;99.90;;;;;;5074916;28;20079;-71
2022/11/09 00:27:32;;;;;;;4.00;1.52;;;13.60;99.90;;;;;;5075322;28;20406;-71
2022/11/09 00:29:57;;;;;;;3.53;1.17;;;13.60;99.90;;;;;;5074870;28;20045;-71
2022/11/09 00:32:23;;;;;;;2.50;1.38;;;13.60;99.90;;;;;;5074756;28;20043;-71
2022/11/09 00:34:49;;;;;;;4.25;1.55;;;13.70;99.90;;;;;;5074621;28;20485;-70
2022/11/09 00:37:15;;;;;;;3.03;1.52;;;13.70;99.90;;;;;;5074396;28;20123;-71
2022/11/09 00:39:40;;;;;;;3.80;1.55;;;13.70;99.90;;;;;;5074601;28;20047;-71
2022/11/09 00:42:06;;;;;;;3.00;1.50;;;13.70;99.90;;;;;;5075161;28;20131;-71
2022/11/09 00:44:32;;;;;;;4.22;1.40;;;13.70;99.90;;;;;;5074619;28;20044;-71
2022/11/09 00:46:57;;;;;;;3.80;1.70;;;13.70;99.90;;;;;;5074425;28;20372;-71
2022/11/09 00:49:23;;;;;;;2.85;1.17;;;13.70;99.90;;;;;;5074487;28;20419;-71
2022/11/09 00:51:49;;;;;;;5.45;1.60;;;13.70;99.90;;;;;;5074699;28;20037;-71
2022/11/09 00:54:16;;;;;;;4.07;1.70;;;13.70;99.90;;;;;;5055591;28;20047;-71
2022/11/09 00:56:42;;;;;;;2.97;1.30;;;13.70;99.90;;;;;;5074309;28;20033;-71
2022/11/09 00:59:09;;;;;;;2.72;1.38;;;13.70;99.90;;;;;;5074278;28;20043;-71
2022/11/09 01:01:35;;;;;;;2.72;1.20;;;13.70;99.90;;;;;;5056421;28;20040;-71
2022/11/09 01:04:00;;;;;;;2.72;1.42;;;13.60;99.90;;;;;;5075233;28;20043;-71
2022/11/09 01:06:26;;;;;;;3.10;1.52;;;13.70;99.90;;;;;;5074091;28;20041;-71
2022/11/09 01:08:52;;;;;;;2.58;1.23;;;13.70;99.90;;;;;;5074123;28;20052;-71
2022/11/09 01:11:20;;;;;;;2.97;1.40;;;13.70;99.90;;;;;;5056956;28;20082;-71
2022/11/09 01:13:46;;;;;;;3.58;1.48;;;13.70;99.90;;;;;;5073889;28;20036;-71
2022/11/09 01:16:15;;;;;;;2.90;1.40;;;13.70;99.90;;;;;;5074031;28;20090;-71
2022/11/09 01:18:41;;;;;;;3.78;1.50;;;13.70;99.90;;;;;;5074634;28;20044;-72
2022/11/09 01:21:08;;;;;;;3.90;1.25;;;13.70;99.90;;;;;;5073561;28;20469;-71
2022/11/09 01:23:35;;;;;;;3.55;1.50;;;13.80;99.90;;;;;;5073809;28;20055;-71
2022/11/09 01:26:05;;;;;;;3.70;1.20;;;13.80;99.90;;;;;;5073560;28;20508;-72
2022/11/09 01:28:31;;;;;;;2.53;1.02;;;13.90;99.90;;;;;;5073659;28;20032;-71
2022/11/09 01:31:01;;;;;;;5.25;1.20;;;13.90;99.90;;;;;;5073737;28;20178;-71
2022/11/09 01:33:27;;;;;;;2.72;1.30;;;13.90;99.90;;;;;;5073450;28;20049;-71
2022/11/09 01:35:53;;;;;;;3.63;1.50;;;13.90;99.90;;;;;;5073576;28;20048;-71
2022/11/09 01:38:18;;;;;;;3.85;1.48;;;13.90;99.90;;;;;;5073646;28;20371;-71
2022/11/09 01:40:44;;;;;;;5.63;1.60;;;13.80;99.90;;;;;;5055993;28;20040;-72
2022/11/09 01:43:15;;;;;;;3.20;2.03;;;13.80;99.90;;;;;;5073577;28;20465;-71
2022/11/09 01:45:45;;;;;;;2.65;1.20;;;13.80;99.90;;;;;;5073219;28;20376;-70
2022/11/09 01:48:32;;;;;;;2.25;1.15;;;13.80;99.90;;;;;;5073657;28;20066;-71
2022/11/09 01:51:03;;;;;;;2.55;1.20;;;13.70;99.90;;;;;;5074073;28;20052;-72
2022/11/09 01:53:35;;;;;;;3.53;1.13;;;13.70;99.90;;;;;;5074001;28;20040;-71
2022/11/09 01:56:05;;;;;;;4.85;1.35;;;13.60;99.90;;;;;;5073411;28;20032;-70
2022/11/09 01:58:43;;;;;;;3.20;1.40;;;13.60;99.90;;;;;;5056242;28;20048;-71
2022/11/09 02:01:10;;;;;;;2.90;1.20;;;13.60;99.90;;;;;;5055414;28;20127;-71
2022/11/09 02:03:58;;;;;;;3.40;1.30;;;13.60;99.90;;;;;;5073710;28;20059;-70
2022/11/09 02:06:26;;;;;;;3.22;1.33;;;13.60;99.90;;;;;;5073363;28;20490;-71
2022/11/09 02:08:55;;;;;;;4.35;1.20;;;13.60;99.90;;;;;;5073323;28;20052;-71
2022/11/09 02:11:23;;;;;;;3.13;1.40;;;13.60;99.90;;;;;;5073271;28;20391;-71
2022/11/09 02:13:54;;;;;;;2.38;0.93;;;13.50;99.90;;;;;;5055181;28;20098;-71
2022/11/09 02:16:21;;;;;;;2.30;1.40;;;13.40;99.90;;;;;;5073762;28;20086;-71
2022/11/09 02:18:56;;;;;;;2.78;1.50;;;13.40;99.90;;;;;;5073223;28;20376;-70
2022/11/09 02:21:25;;;;;;;3.67;1.38;;;13.40;99.90;;;;;;5073702;28;20084;-72
2022/11/09 02:23:51;;;;;;;3.78;1.13;;;13.40;99.90;;;;;;5055679;28;20097;-71
2022/11/09 02:26:28;;;;;;;2.83;1.15;;;13.40;99.90;;;;;;5073043;28;20036;-71
2022/11/09 02:28:54;;;;;;;3.30;1.30;;;13.40;99.90;;;;;;5073163;28;20044;-71
2022/11/09 02:31:23;;;;;;;3.90;1.33;;;13.40;99.90;;;;;;5073284;28;20461;-71
2022/11/09 02:33:52;;;;;;;4.10;1.63;;;13.40;99.90;;;;;;5073238;28;20044;-71
2022/11/09 02:36:17;;;;;;;3.80;1.50;;;13.30;99.90;;;;;;5072950;28;20468;-71
2022/11/09 02:38:43;;;;;;;4.05;1.40;;;13.30;99.90;;;;;;5073021;28;20045;-70
2022/11/09 02:41:11;;;;;;;3.03;1.15;;;13.20;99.90;;;;;;5072996;28;20044;-71
2022/11/09 02:43:38;;;;;;;4.63;1.50;;;13.20;99.90;;;;;;5073474;28;20036;-71
2022/11/09 02:46:03;;;;;;;2.92;1.50;;;13.20;99.90;;;;;;5054995;28;20078;-70
2022/11/09 02:48:29;;;;;;;2.88;1.30;;;13.10;99.90;;;;;;5072537;28;20127;-71
2022/11/09 02:50:55;;;;;;;2.47;1.30;;;13.10;99.90;;;;;;5038591;28;20044;-70
2022/11/09 02:53:20;;;;;;;3.17;1.33;;;13.20;99.90;;;;;;5072850;28;20046;-71
2022/11/09 02:55:46;;;;;;;3.17;1.10;;;13.10;99.90;;;;;;5072799;28;20044;-71
2022/11/09 02:58:12;;;;;;;2.97;1.15;;;13.10;99.90;;;;;;5072725;28;20037;-70
2022/11/09 03:00:37;;;;;;;4.30;1.40;;;13.10;99.90;;;;;;5072796;28;20079;-71
2022/11/09 03:03:04;;;;;;;3.17;1.30;;;13.10;99.90;;;;;;5054827;28;20090;-72
2022/11/09 03:05:29;;;;;;;3.55;1.40;;;13.10;99.90;;;;;;5072670;28;20037;-70
2022/11/09 03:07:55;;;;;;;3.47;1.20;;;13.10;99.90;;;;;;5072593;28;20380;-71
2022/11/09 03:10:21;;;;;;;3.72;1.30;;;13.10;99.90;;;;;;5073255;28;20384;-71
2022/11/09 03:12:47;;;;;;;4.38;1.50;;;13.10;99.90;;;;;;5072632;28;20132;-71
2022/11/09 03:15:13;;;;;;;3.33;1.27;;;13.10;99.90;;;;;;5072952;28;20364;-71
2022/11/09 03:17:39;;;;;;;3.15;1.08;;;13.10;99.90;;;;;;5075437;28;20044;-71
2022/11/09 03:20:05;;;;;;;3.92;1.25;;;13.10;99.90;;;;;;5076130;28;20044;-71
2022/11/09 03:22:31;;;;;;;4.75;1.48;;;13.10;99.90;;;;;;5075817;28;20044;-71
2022/11/09 03:24:56;;;;;;;3.80;1.30;;;13.00;99.90;;;;;;5076392;28;20040;-71
2022/11/09 03:27:22;;;;;;;4.18;1.50;;;12.90;99.90;;;;;;5076026;28;20513;-70
2022/11/09 03:29:48;;;;;;;3.97;1.38;;;12.90;99.90;;;;;;5058743;28;20529;-71
2022/11/09 03:32:13;;;;;;;4.68;1.40;;;12.80;99.90;;;;;;5075972;28;20475;-71
2022/11/09 03:34:39;;;;;;;3.40;1.50;;;12.80;99.90;;;;;;5075953;28;20468;-71
2022/11/09 03:37:04;;;;;;;3.05;1.23;;;12.90;99.90;;;;;;5058207;28;20131;-71
2022/11/09 03:39:30;;;;;;;4.90;1.20;;;12.90;99.90;;;;;;5075523;28;20145;-71
2022/11/09 03:41:56;;;;;;;2.90;1.20;;;12.90;99.90;;;;;;5075812;28;20047;-71
2022/11/09 03:44:21;;;;;;;3.47;1.30;;;12.90;99.90;;;;;;5076251;28;20040;-71
2022/11/09 03:46:47;;;;;;;4.03;1.48;;;12.90;99.90;;;;;;5075607;28;20380;-71
2022/11/09 03:49:13;;;;;;;2.40;1.30;;;12.90;99.90;;;;;;5075617;28;20044;-71
2022/11/09 03:51:38;;;;;;;5.53;1.42;;;12.90;99.90;;;;;;5076127;28;20044;-70
2022/11/09 03:54:04;;;;;;;4.88;1.35;;;12.90;99.90;;;;;;5075556;28;20044;-71
2022/11/09 03:56:30;;;;;;;2.47;1.30;;;12.90;99.90;;;;;;5075554;28;20411;-71
2022/11/09 03:58:55;;;;;;;5.63;1.60;;;12.80;99.90;;;;;;5075715;28;20111;-71
2022/11/09 04:01:21;;;;;;;4.35;1.30;;;12.90;99.90;;;;;;5075482;28;20387;-71
2022/11/09 04:03:47;;;;;;;2.45;1.10;;;12.90;99.90;;;;;;5057640;28;20510;-71
2022/11/09 04:06:12;;;;;;;2.08;1.17;;;12.90;99.90;;;;;;5057638;28;20357;-71
2022/11/09 04:08:38;;;;;;;2.50;1.20;;;12.90;99.90;;;;;;5074863;28;20412;-72
2022/11/09 04:11:04;;;;;;;5.80;1.45;;;12.80;99.90;;;;;;5076376;28;20083;-71
2022/11/09 04:13:29;;;;;;;4.18;1.08;;;12.90;99.90;;;;;;5075247;28;20102;-71
2022/11/09 04:15:55;;;;;;;2.17;1.10;;;12.90;99.90;;;;;;5040881;28;20345;-71
2022/11/09 04:18:21;;;;;;;2.47;1.30;;;12.90;99.90;;;;;;5075117;28;20062;-71
2022/11/09 04:20:46;;;;;;;3.28;1.20;;;12.90;99.90;;;;;;5075076;28;20036;-71
2022/11/09 04:23:12;;;;;;;4.25;1.38;;;12.90;99.90;;;;;;5075050;28;20487;-71
2022/11/09 04:25:40;;;;;;;3.00;1.52;;;12.90;99.90;;;;;;5074958;28;20127;-71
2022/11/09 04:28:09;;;;;;;3.90;1.30;;;12.90;99.90;;;;;;5075165;28;20080;-72
2022/11/09 04:30:35;;;;;;;3.25;2.00;;;12.90;99.90;;;;;;5074931;28;20392;-71
2022/11/09 04:33:02;;;;;;;3.58;1.30;;;13.00;99.90;;;;;;5074700;28;20159;-71
2022/11/09 04:35:29;;;;;;;2.47;1.60;;;13.00;99.90;;;;;;5074728;28;20045;-71
2022/11/09 04:37:56;;;;;;;4.28;1.23;;;13.00;99.90;;;;;;5074664;28;20051;-71
2022/11/09 04:40:24;;;;;;;3.83;1.20;;;13.00;99.90;;;;;;5074683;28;20053;-71
2022/11/09 04:42:50;;;;;;;4.90;1.50;;;13.00;99.90;;;;;;5074583;28;20472;-71
2022/11/09 04:45:16;;;;;;;3.42;1.50;;;13.00;99.90;;;;;;5074539;28;20043;-71
2022/11/09 04:47:41;;;;;;;2.72;1.30;;;13.00;99.90;;;;;;5075269;28;20044;-72
2022/11/09 04:50:07;;;;;;;3.28;1.30;;;13.00;99.90;;;;;;5074743;28;20353;-71
2022/11/09 04:52:33;;;;;;;2.78;1.30;;;12.90;99.90;;;;;;5074463;28;20076;-71
2022/11/09 04:54:59;;;;;;;3.75;1.38;;;12.90;99.90;;;;;;5040198;28;20075;-71
2022/11/09 04:57:24;;;;;;;3.70;1.30;;;12.90;99.90;;;;;;5074325;28;20044;-71
2022/11/09 04:59:50;;;;;;;3.90;1.48;;;12.80;99.90;;;;;;5074270;28;20040;-71
2022/11/09 05:02:15;;;;;;;4.05;1.58;;;12.80;99.90;;;;;;5074207;28;20038;-71
2022/11/09 05:04:41;;;;;;;4.05;1.80;;;12.80;99.90;;;;;;5074105;28;20127;-71
2022/11/09 05:07:07;;;;;;;3.67;1.20;;;12.80;99.90;;;;;;5074065;28;20048;-71
2022/11/09 05:09:32;;;;;;;3.35;1.67;;;12.80;99.90;;;;;;5074208;28;20086;-72
2022/11/09 05:11:58;;;;;;;3.03;1.40;;;12.80;99.90;;;;;;5074562;28;20133;-71
2022/11/09 05:14:24;;;;;;;3.40;1.30;;;12.70;99.90;;;;;;5074570;28;20174;-71
2022/11/09 05:16:49;;;;;;;5.00;1.40;;;12.70;99.90;;;;;;5074025;28;20037;-71
2022/11/09 05:19:15;;;;;;;3.35;1.40;;;12.70;99.90;;;;;;5074641;28;20077;-71
2022/11/09 05:21:41;;;;;;;2.92;1.30;;;12.70;99.90;;;;;;5074197;28;20058;-71
2022/11/09 05:24:07;;;;;;;3.95;1.30;;;12.60;99.90;;;;;;5074350;28;20041;-71
2022/11/09 05:26:38;;;;;;;4.28;1.40;;;12.60;99.90;;;;;;5073940;28;20115;-71
2022/11/09 05:29:09;;;;;;;4.43;1.38;;;12.60;99.90;;;;;;5073751;28;20105;-71
2022/11/09 05:31:36;;;;;;;4.78;1.40;;;12.60;99.90;;;;;;5073709;28;20055;-72
2022/11/09 05:34:02;;;;;;;3.47;1.40;;;12.60;99.90;;;;;;5074181;28;20036;-72
2022/11/09 05:36:29;;;;;;;3.05;1.40;;;12.60;99.90;;;;;;5073566;28;20048;-71
2022/11/09 05:38:56;;;;;;;2.22;1.17;;;12.60;99.90;;;;;;5073016;28;20051;-72
2022/11/09 05:41:22;;;;;;;2.70;1.20;;;12.60;99.90;;;;;;5073567;28;20115;-71
2022/11/09 05:43:48;;;;;;;2.10;1.10;;;12.60;99.90;;;;;;5074264;28;20086;-72
2022/11/09 05:46:16;;;;;;;4.20;1.67;;;12.60;99.90;;;;;;5073488;28;20489;-71
2022/11/09 05:48:42;;;;;;;5.47;1.40;;;12.60;99.90;;;;;;5073875;28;20097;-71
2022/11/09 05:51:10;;;;;;;2.38;1.17;;;12.50;99.90;;;;;;5074531;28;20121;-71
2022/11/09 05:53:36;;;;;;;5.78;1.23;;;12.60;99.90;;;;;;5073403;28;20076;-72
2022/11/09 05:56:07;;;;;;;4.03;1.40;;;12.60;99.90;;;;;;5039164;28;20075;-71
2022/11/09 05:58:36;;;;;;;3.83;1.58;;;12.60;99.90;;;;;;5073929;28;20047;-71
2022/11/09 06:01:06;;;;;;;2.63;1.15;;;12.60;99.90;;;;;;5073302;28;20048;-72
2022/11/09 06:03:32;;;;;;;3.65;1.45;;;12.60;99.90;;;;;;5073319;28;20123;-71
2022/11/09 06:06:03;;;;;;;3.83;1.55;;;12.50;99.90;;;;;;5072893;28;20190;-71
2022/11/09 06:08:29;;;;;;;4.32;1.25;;;12.50;99.90;;;;;;5055456;28;20414;-71
2022/11/09 06:10:59;;;;;;;3.40;1.30;;;12.40;99.90;;;;;;5073312;28;20135;-72
2022/11/09 06:13:25;;;;;;;5.13;1.40;;;12.30;99.90;;;;;;5073184;28;20480;-72
2022/11/09 06:15:53;;;;;;;3.60;1.38;;;12.30;99.90;;;;;;5073692;28;20330;-71
2022/11/09 06:18:18;;;;;;;3.63;1.30;;;12.40;99.90;;;;;;5055437;28;20113;-72
2022/11/09 06:20:44;;;;;;;4.75;1.42;;;12.30;99.90;;;;;;5073477;28;20131;-72
2022/11/09 06:23:10;;;;;;;2.42;1.02;;;12.30;99.90;;;;;;5073124;28;20103;-72
2022/11/09 06:25:36;;;;;;;4.60;1.27;;;12.30;99.90;;;;;;5073690;28;20430;-72
2022/11/09 06:28:02;;;;;;;4.57;1.50;;;12.30;99.90;;;;;;5073012;28;20040;-72
2022/11/09 06:30:28;;;;;;;5.88;1.38;;;12.30;99.90;;;;;;5073101;28;20371;-71
2022/11/09 06:33:01;;;;;;;4.85;1.30;;;12.30;99.90;;;;;;5073061;28;20194;-70
2022/11/09 06:35:27;;;;;;;3.28;1.20;;;12.20;99.90;;;;;;5073266;28;20098;-71
2022/11/09 06:37:57;;;;;;;5.13;1.35;;;12.20;99.90;;;;;;5072967;28;20441;-70
2022/11/09 06:40:23;;;;;;;3.42;1.30;;;12.20;99.90;;;;;;5073251;28;20044;-71
2022/11/09 06:42:49;;;;;;;4.65;1.35;;;12.10;99.90;;;;;;5072958;28;20032;-72
2022/11/09 06:45:14;;;;;;;4.95;1.50;;;12.10;99.90;;;;;;5072316;28;20088;-71
2022/11/09 06:47:40;;;;;;;2.92;1.30;;;12.10;99.90;;;;;;5072129;28;20040;-70
2022/11/09 06:50:06;;;;;;;4.32;1.42;;;12.10;99.90;;;;;;5072757;28;20045;-70
2022/11/09 06:52:31;;;;;;;5.28;1.60;;;12.10;99.90;;;;;;5075529;28;20040;-70
2022/11/09 06:54:57;;;;;;;5.05;1.52;;;12.10;99.90;;;;;;5077121;28;20093;-70
2022/11/09 06:57:23;;;;;;;4.10;1.85;;;12.10;99.90;;;;;;5077002;28;20036;-70
2022/11/09 06:59:48;;;;;;;5.00;1.50;;;12.00;99.90;;;;;;5076889;28;20094;-70
2022/11/09 07:02:18;;;;;;;3.30;1.08;;;12.00;99.90;;;;;;5076138;28;20048;-71
2022/11/09 07:04:44;;;;;;;6.45;1.70;;;12.10;99.90;;;;;;5059429;28;20042;-70
2022/11/09 07:07:10;;;;;;;3.88;1.23;;;12.10;99.90;;;;;;5058343;28;20059;-71
2022/11/09 07:09:36;;;;;;;3.58;1.35;;;12.00;99.90;;;;;;5076250;28;20135;-70
2022/11/09 07:12:02;;;;;;;4.90;1.40;;;12.00;99.90;;;;;;5076226;28;20052;-69
2022/11/09 07:14:28;;;;;;;5.15;1.60;;;12.00;99.90;;;;;;5076165;28;20131;-72
2022/11/09 07:16:54;;;;;;;4.28;1.30;;;12.00;99.90;;;;;;5076080;28;20083;-64
2022/11/09 07:19:19;;;;;;;5.30;2.03;;;12.00;99.90;;;;;;5076142;28;20040;-64
2022/11/09 07:21:45;;;;;;;3.25;1.40;;;12.00;99.90;;;;;;5076076;28;20361;-63
2022/11/09 07:24:11;;;;;;;5.05;1.75;;;12.00;99.90;;;;;;5059162;28;20080;-64
2022/11/09 07:26:36;;;;;;;4.70;1.20;;;12.00;99.90;;;;;;5059042;28;20044;-64
2022/11/09 07:29:02;;;;;;;5.97;1.60;;;12.00;99.90;;;;;;5058087;28;20438;-63
2022/11/09 07:31:28;;;;;;;3.35;1.60;;;12.00;99.90;;;;;;5075695;28;20055;-63
2022/11/09 07:33:54;;;;;;;4.22;1.30;;;12.00;99.90;;;;;;5076293;28;20044;-64
2022/11/09 07:36:20;;;;;;;5.43;1.30;;;12.10;99.90;;;;;;5076022;28;20045;-64
2022/11/09 07:38:46;;;;;;;4.32;1.58;;;12.10;99.90;;;;;;5075583;28;20578;-63
2022/11/09 07:41:12;;;;;;;2.88;1.45;;;12.10;99.90;;;;;;5075606;28;20044;-64
2022/11/09 07:43:37;;;;;;;4.60;1.63;;;12.10;99.90;;;;;;5075636;28;20131;-64
2022/11/09 07:46:04;;;;;;;4.85;1.30;;;12.10;99.90;;;;;;5075664;28;20044;-63
2022/11/09 07:48:30;;;;;;;5.43;1.60;;;12.10;99.90;;;;;;5057618;28;20064;-64
2022/11/09 07:50:59;;;;;;;5.45;1.50;;;12.10;99.90;;;;;;5075563;28;20098;-64
2022/11/09 07:53:24;;;;;;;5.53;1.48;;;12.10;99.90;;;;;;5075465;28;20088;-63
2022/11/09 07:56:01;;;;;;;4.28;1.67;;;12.10;99.90;;;;;;5075598;28;20094;-64
2022/11/09 07:58:27;;;;;;;4.97;1.58;;;12.10;99.90;;;;;;5075401;28;20051;-64
2022/11/09 08:00:53;;;;;;;4.68;1.90;;;12.20;99.90;;;;;;5075390;28;20045;-64
2022/11/09 08:03:20;;;;;;;5.68;1.50;;;12.20;99.90;;;;;;5057881;28;20106;-63
2022/11/09 08:05:47;;;;;;;4.50;1.50;;;12.20;99.90;;;;;;5075116;28;20056;-64
2022/11/09 08:08:14;;;;;;;5.75;2.00;;;12.20;99.90;;;;;;5075229;28;20090;-63
2022/11/09 08:10:41;;;;;;;4.70;1.63;;;12.30;99.90;;;;;;5075697;28;20056;-64
2022/11/09 08:13:10;;;;;;;4.57;1.70;;;12.30;99.90;;;;;;5075157;28;20131;-64
2022/11/09 08:15:39;;;;;;;5.53;1.23;;;12.30;99.90;;;;;;5075875;28;20061;-64
2022/11/09 08:18:10;;;;;;;3.58;1.40;;;12.30;99.90;;;;;;5075011;28;20144;-64
2022/11/09 08:20:36;;;;;;;5.60;1.60;;;12.30;99.90;;;;;;5074981;28;20055;-63
2022/11/09 08:23:02;;;;;;;4.13;1.80;;;12.40;99.90;;;;;;5074391;28;20048;-72
2022/11/09 08:25:28;;;;;;;4.38;1.30;;;12.40;99.90;;;;;;5074363;28;20084;-72
2022/11/09 08:27:57;;;;;;;4.35;1.50;;;12.50;99.90;;;;;;5075314;28;20102;-73
2022/11/09 08:30:23;;;;;;;4.40;1.50;;;12.40;99.90;;;;;;5074613;28;20097;-74
2022/11/09 08:32:49;;;;;;;4.05;1.40;;;12.40;99.90;;;;;;5040576;28;20088;-73
2022/11/09 08:35:19;;;;;;;4.43;1.77;;;12.50;99.90;;;;;;5074500;28;20082;-73
2022/11/09 08:37:45;;;;;;;5.28;1.60;;;12.50;99.90;;;;;;5074580;28;20059;-75
2022/11/09 08:40:13;;;;;;;4.38;1.58;;;12.50;99.90;;;;;;5056998;28;20052;-72
2022/11/09 08:42:38;;;;;;;4.05;1.90;;;12.50;99.90;;;;;;5074509;28;20040;-74
2022/11/09 08:45:04;;;;;;;5.32;1.90;;;12.60;99.90;;;;;;5057124;28;20488;-76
2022/11/09 08:47:30;;;;;;;5.15;1.80;;;12.70;99.90;;;;;;5074360;28;20396;-74
2022/11/09 08:49:56;;;;;;;3.88;1.42;;;12.70;99.90;;;;;;5074322;28;20135;-73
2022/11/09 08:52:22;;;;;;;3.45;1.30;;;12.80;99.90;;;;;;5074230;28;20123;-72
2022/11/09 08:54:47;;;;;;;7.68;1.80;;;12.80;99.90;;;;;;5075001;28;20402;-72
2022/11/09 08:57:13;;;;;;;5.60;2.08;;;12.80;99.90;;;;;;5074154;28;20044;-71
2022/11/09 08:59:39;;;;;;;7.85;2.08;;;12.80;99.90;;;;;;5056514;28;20052;-73
2022/11/09 09:02:05;;;;;;;6.10;1.60;;;12.80;99.90;;;;;;5074104;28;20068;-70
2022/11/09 09:04:31;;;;;;;5.63;1.60;;;12.80;99.90;;;;;;5074022;28;20052;-69
2022/11/09 09:06:59;;;;;;;4.28;1.20;;;12.90;99.90;;;;;;5073575;28;20045;-69
2022/11/09 09:09:24;;;;;;;4.57;1.63;;;12.90;99.90;;;;;;5073502;28;20060;-69
2022/11/09 09:11:50;;;;;;;4.38;1.48;;;12.80;99.90;;;;;;5073913;28;20054;-70
2022/11/09 09:14:16;;;;;;;5.03;1.48;;;12.90;99.90;;;;;;5073518;28;20084;-71
2022/11/09 09:16:42;;;;;;;4.38;1.50;;;13.00;99.90;;;;;;5073848;28;20396;-72
2022/11/09 09:19:07;;;;;;;6.38;1.90;;;13.00;99.90;;;;;;5073801;28;20143;-72
2022/11/09 09:21:33;;;;;;;3.95;1.50;;;13.10;99.90;;;;;;5073763;28;20097;-71
2022/11/09 09:23:58;;;;;;;3.75;1.30;;;13.20;99.90;;;;;;5073728;28;20040;-72
2022/11/09 09:26:24;;;;;;;6.18;1.52;;;13.20;99.90;;;;;;5073361;28;20088;-72
2022/11/09 09:28:50;;;;;;;5.35;1.67;;;13.20;99.90;;;;;;5073447;28;20040;-72
2022/11/09 09:31:16;;;;;;;5.95;1.33;;;13.10;99.90;;;;;;5074056;28;20052;-71
2022/11/09 09:33:42;;;;;;;3.58;1.63;;;13.10;99.90;;;;;;5074353;28;20048;-72
2022/11/09 09:36:19;;;;;;;6.15;1.70;;;13.20;99.90;;;;;;5073345;28;20062;-72
2022/11/09 09:38:45;;;;;;;4.15;1.42;;;13.20;99.90;;;;;;5073898;28;20098;-73
2022/11/09 09:41:41;;;;;;;5.00;1.60;;;13.30;99.90;;;;;;5073430;28;20099;-71
2022/11/09 09:44:31;;;;;;;4.60;1.35;;;13.40;99.90;;;;;;5073602;28;20391;-72
2022/11/09 09:47:17;;;;;;;4.75;1.50;;;13.40;99.90;;;;;;5073291;28;20437;-72
2022/11/09 09:49:54;;;;;;;5.00;1.60;;;13.40;99.90;;;;;;5073481;28;20068;-74
2022/11/09 09:52:20;;;;;;;;;;;13.40;99.90;;;;;;5074609;28;20353;-72
2022/11/09 09:55:15;;;;;;;4.38;1.85;;;13.40;99.90;;;;;;5073418;28;20011;-73
2022/11/09 09:57:45;;;;;;;3.53;1.33;;;13.40;99.90;;;;;;5072702;28;20492;-72
2022/11/09 10:00:20;;;;;;;4.15;1.50;;;13.60;99.90;;;;;;5055815;28;20057;-71
2022/11/09 10:02:46;;;;;;;4.85;1.55;;;13.90;99.90;;;;;;5073836;28;20048;-75
2022/11/09 10:05:15;;;;;;;4.05;1.55;;;13.90;99.90;;;;;;5055461;28;20048;-73
2022/11/09 10:08:09;;;;;;;5.93;2.15;;;14.00;99.90;;;;;;5055399;28;20128;-69
2022/11/09 10:10:35;;;;;;;3.15;1.60;;;14.30;99.90;;;;;;5073441;28;20074;-70
2022/11/09 10:13:31;;;;;;;4.70;1.73;;;14.30;99.90;;;;;;5073089;28;20439;-71
2022/11/09 10:16:30;;;;;;;3.05;1.30;;;14.20;99.90;;;;;;5073066;28;20048;-70
2022/11/09 10:19:20;;;;;;;4.05;1.40;;;13.90;99.90;;;;;;5056067;28;20113;-70
2022/11/09 10:21:54;;;;;;;6.65;1.80;;;13.70;99.90;;;;;;5073242;28;20044;-76
2022/11/09 10:24:22;;;;;;;4.38;1.67;;;13.60;99.90;;;;;;5073006;28;20055;-68
2022/11/09 10:26:55;;;;;;;4.20;1.60;;;13.50;99.90;;;;;;5076421;28;20040;-71
2022/11/09 10:29:20;;;;;;;4.80;1.60;;;13.60;99.90;;;;;;5077001;28;20048;-72
2022/11/09 10:31:49;;;;;;;4.55;1.60;;;13.70;99.90;;;;;;5076781;28;20071;-73
2022/11/09 10:34:21;;;;;;;6.38;1.70;;;13.90;99.90;;;;;;5076913;28;20059;-72
2022/11/09 10:36:55;;;;;;;5.20;1.60;;;14.00;99.90;;;;;;5076826;28;20080;-72
2022/11/09 10:39:23;;;;;;;4.22;1.45;;;14.00;99.90;;;;;;5077728;28;20380;-72
2022/11/09 10:41:49;;;;;;;5.28;1.73;;;13.90;99.90;;;;;;5076744;28;20141;-69
2022/11/09 10:44:17;;;;;;;6.10;1.58;;;13.90;99.90;;;;;;5076751;28;20094;-75
2022/11/09 10:47:04;;;;;;;4.18;1.55;;;14.00;99.90;;;;;;5077201;28;20473;-76
2022/11/09 10:49:30;;;;;;;3.83;1.60;;;14.00;99.90;;;;;;5059719;28;20369;-74
2022/11/09 10:51:56;;;;;;;5.22;1.58;;;13.90;99.90;;;;;;5059077;28;20047;-72
2022/11/09 10:54:26;;;;;;;6.57;1.63;;;14.00;99.90;;;;;;5076491;28;20484;-70
2022/11/09 10:57:08;;;;;;;3.63;1.50;;;14.20;99.90;;;;;;5076470;28;20037;-72
2022/11/09 10:59:46;;;;;;;3.58;1.58;;;14.40;99.90;;;;;;5059106;28;20141;-72
2022/11/09 11:02:24;;;;;;;6.63;1.75;;;14.40;99.90;;;;;;5076359;28;20049;-71
2022/11/09 11:04:50;;;;;;;4.05;1.48;;;14.20;99.90;;;;;;5058565;28;20091;-71
2022/11/09 11:07:21;;;;;;;3.92;1.35;;;14.10;99.90;;;;;;5076236;28;20041;-73
2022/11/09 11:09:46;;;;;;;4.57;1.88;;;14.10;99.90;;;;;;5075819;28;20555;-71
2022/11/09 11:12:15;;;;;;;5.13;1.20;;;14.10;99.90;;;;;;5076366;28;20179;-72
2022/11/09 11:14:45;;;;;;;6.70;1.45;;;14.00;99.90;;;;;;5076071;28;20044;-74
2022/11/09 11:17:26;;;;;;;6.68;1.50;;;13.90;99.90;;;;;;5076658;28;20149;-72
2022/11/09 11:19:51;;;;;;;4.00;1.50;;;13.90;99.90;;;;;;5058390;28;20194;-77
2022/11/09 11:22:22;;;;;;;4.85;1.40;;;14.00;99.90;;;;;;5076017;28;20098;-76
2022/11/09 11:24:59;;;;;;;5.03;1.75;;;14.00;99.90;;;;;;5059087;28;20052;-72
2022/11/09 11:27:41;;;;;;;5.78;1.38;;;14.00;99.90;;;;;;5058837;28;20137;-71
2022/11/09 11:30:10;;;;;;;4.50;1.33;;;13.90;99.90;;;;;;5076088;28;20396;-70
2022/11/09 11:32:36;;;;;;;4.20;1.45;;;13.90;99.90;;;;;;5076106;28;20393;-72
2022/11/09 11:35:37;;;;;;;3.20;1.23;;;13.90;99.90;;;;;;5076093;28;20047;-73
2022/11/09 11:38:21;;;;;;;6.10;1.90;;;13.90;99.90;;;;;;5075736;28;20049;-73
2022/11/09 11:41:03;;;;;;;6.18;1.40;;;13.90;99.90;;;;;;5075497;28;20480;-72
2022/11/09 11:43:34;;;;;;;4.93;1.60;;;14.00;99.90;;;;;;5058211;28;20131;-71
2022/11/09 11:46:15;;;;;;;4.55;1.85;;;14.00;99.90;;;;;;5076005;28;20040;-71
2022/11/09 11:48:46;;;;;;;5.13;1.33;;;13.90;99.90;;;;;;5075338;28;20048;-72
2022/11/09 11:51:17;;;;;;;4.25;1.45;;;13.90;99.90;;;;;;5075506;28;20044;-72
2022/11/09 11:54:12;;;;;;;5.15;1.42;;;13.80;99.90;;;;;;5058614;28;20083;-71
2022/11/09 11:56:55;;;;;;;4.78;1.38;;;13.70;99.90;;;;;;5075361;28;20056;-74
2022/11/09 11:59:29;;;;;;;6.72;2.10;;;13.70;99.90;;;;;;5075498;28;20075;-73
2022/11/09 12:01:58;;;;;;;4.35;1.40;;;13.70;99.90;;;;;;5076516;28;20103;-72
2022/11/09 12:04:33;;;;;;;2.80;1.35;;;13.70;99.90;;;;;;5057657;28;20444;-72
2022/11/09 12:07:35;;;;;;;4.35;1.60;;;13.70;99.90;;;;;;5075678;28;20109;-73
2022/11/09 12:10:01;;;;;;;5.07;1.38;;;13.70;99.90;;;;;;5075595;28;20060;-72
2022/11/09 12:12:42;;;;;;;3.45;1.38;;;13.60;99.90;;;;;;5075031;28;20052;-71
2022/11/09 12:15:41;;;;;;;5.28;1.63;;;13.60;99.90;;;;;;5075209;28;20480;-71
2022/11/09 12:18:17;;;;;;;6.05;1.98;;;13.60;99.90;;;;;;5075777;28;20080;-71
2022/11/09 12:21:21;;;;;;;3.78;1.25;;;13.70;99.90;;;;;;5057157;28;20049;-73
2022/11/09 12:24:20;;;;;;;6.43;2.08;;;13.90;99.90;;;;;;5057570;28;20044;-73
2022/11/09 12:27:07;;;;;;;5.10;1.58;;;13.80;99.90;;;;;;5074754;28;20055;-73
2022/11/09 12:29:56;;;;;;;6.00;1.33;;;13.80;99.90;;;;;;5075450;28;20063;-73
2022/11/09 12:32:33;;;;;;;4.35;1.27;;;13.80;99.90;;;;;;5074696;28;20060;-72
2022/11/09 12:35:20;;;;;;;3.50;1.63;;;13.80;99.90;;;;;;5075163;28;20389;-70
2022/11/09 12:37:57;;;;;;;4.55;1.40;;;13.80;99.90;;;;;;5074450;28;20045;-70
2022/11/09 12:40:27;;;;;;;3.22;1.23;;;13.80;99.90;;;;;;5075101;28;20051;-72
2022/11/09 12:42:59;;;;;;;2.53;1.02;;;13.80;99.90;;;;;;5074521;28;20055;-70
2022/11/09 12:45:33;;;;;;;4.38;1.13;;;13.90;99.90;;;;;;5056831;28;20093;-71
2022/11/09 12:48:13;;;;;;;4.85;1.27;;;13.90;99.90;;;;;;5056148;28;20048;-70
2022/11/09 12:50:39;;;;;;;2.90;1.10;;;14.00;99.90;;;;;;5057403;28;20361;-72
2022/11/09 12:53:05;;;;;;;3.08;1.10;;;14.00;99.90;;;;;;5074331;28;20389;-70
2022/11/09 12:55:48;;;;;;;5.07;1.48;;;14.10;99.90;;;;;;5073924;28;20119;-70
2022/11/09 12:58:29;;;;;;;4.63;1.40;;;14.20;99.90;;;;;;5074296;28;20044;-70